Time;durP1;ratioP1;P1;durP2;ratioP2;P2;SDS_P1;SDS_P2;PMS_P1;PMS_P2;Temp;Humidity;BMP_temperature;BMP_pressure;BME280_temperature;BME280_humidity;BME280_pressure;Samples;Min_cycle;Max_cycle;Signal;HPM_P1;HPM_P2
2022/09/11 00:00:43;;;;;;;5.57;5.07;;;14.80;99.90;;;;;;4754869;27;10000260;-77
2022/09/11 00:03:09;;;;;;;5.13;4.50;;;14.80;99.90;;;;;;5108835;27;20027;-78
2022/09/11 00:05:39;;;;;;;4.85;4.38;;;14.80;99.90;;;;;;5124822;27;20026;-78
2022/09/11 00:08:06;;;;;;;4.68;4.28;;;14.80;99.90;;;;;;5126053;27;20028;-78
2022/09/11 00:10:36;;;;;;;5.57;4.60;;;14.70;99.90;;;;;;5118291;27;20064;-78
2022/09/11 00:13:03;;;;;;;5.35;4.85;;;14.70;99.90;;;;;;5124797;27;20034;-77
2022/09/11 00:15:29;;;;;;;5.53;4.28;;;14.70;99.90;;;;;;5105919;27;20418;-78
2022/09/11 00:17:55;;;;;;;4.82;4.32;;;14.70;99.90;;;;;;5105151;27;20390;-77
2022/09/11 00:20:21;;;;;;;6.28;5.00;;;14.70;99.90;;;;;;5118616;27;20038;-77
2022/09/11 00:22:47;;;;;;;5.28;4.72;;;14.70;99.90;;;;;;5123268;27;20031;-78
2022/09/11 00:25:13;;;;;;;5.65;5.00;;;14.70;99.90;;;;;;5113089;27;20085;-78
2022/09/11 00:27:39;;;;;;;5.75;4.90;;;14.70;99.90;;;;;;5105222;28;20024;-78
2022/09/11 00:30:05;;;;;;;8.50;6.10;;;14.70;99.90;;;;;;5125069;27;20030;-78
2022/09/11 00:32:32;;;;;;;9.23;7.47;;;14.70;99.90;;;;;;5123364;27;20517;-78
2022/09/11 00:34:57;;;;;;;8.55;6.53;;;14.70;99.90;;;;;;5117403;27;20035;-78
2022/09/11 00:37:23;;;;;;;9.93;7.57;;;14.70;99.90;;;;;;5119929;27;20038;-77
2022/09/11 00:39:49;;;;;;;9.07;8.18;;;14.80;99.90;;;;;;5121594;27;20097;-78
2022/09/11 00:42:14;;;;;;;11.50;9.05;;;14.80;99.90;;;;;;5095050;28;20042;-78
2022/09/11 00:44:40;;;;;;;12.18;9.68;;;14.80;99.90;;;;;;5100752;28;20655;-78
2022/09/11 00:47:08;;;;;;;9.70;8.70;;;14.90;99.90;;;;;;5091648;28;20426;-78
2022/09/11 00:49:42;;;;;;;9.27;8.13;;;14.90;99.90;;;;;;5084336;28;20020;-78
2022/09/11 00:52:13;;;;;;;12.95;11.65;;;14.90;99.90;;;;;;5100339;27;20019;-78
2022/09/11 00:54:53;;;;;;;11.20;10.07;;;14.90;99.90;;;;;;5102417;27;20488;-78
2022/09/11 00:57:22;;;;;;;9.95;8.95;;;14.90;99.90;;;;;;5092540;27;20090;-77
2022/09/11 00:59:51;;;;;;;9.15;8.00;;;14.90;99.90;;;;;;5096201;28;20036;-77
2022/09/11 01:02:20;;;;;;;9.35;7.75;;;14.90;99.90;;;;;;5087095;28;20036;-77
2022/09/11 01:04:46;;;;;;;9.60;8.50;;;14.90;99.90;;;;;;5097907;28;20028;-78
2022/09/11 01:07:14;;;;;;;8.35;7.55;;;14.90;99.90;;;;;;5086949;28;20074;-77
2022/09/11 01:09:40;;;;;;;7.63;6.43;;;14.90;99.90;;;;;;5085617;28;20078;-77
2022/09/11 01:12:18;;;;;;;7.55;6.85;;;14.90;99.90;;;;;;5094599;28;20024;-78
2022/09/11 01:15:05;;;;;;;7.82;7.03;;;14.90;99.90;;;;;;5105896;28;20051;-78
2022/09/11 01:17:39;;;;;;;8.13;7.32;;;14.80;99.90;;;;;;5087222;28;20363;-77
2022/09/11 01:20:26;;;;;;;7.22;6.53;;;14.80;99.90;;;;;;5095124;28;20046;-77
2022/09/11 01:23:12;;;;;;;6.53;5.93;;;14.80;99.90;;;;;;5100590;28;20028;-78
2022/09/11 01:26:07;;;;;;;9.85;8.85;;;14.70;99.90;;;;;;5086259;28;20074;-78
2022/09/11 01:28:56;;;;;;;7.90;7.13;;;14.70;99.90;;;;;;5100005;28;20032;-78
2022/09/11 01:31:25;;;;;;;8.32;7.30;;;14.50;99.90;;;;;;5095317;28;20028;-77
2022/09/11 01:34:24;;;;;;;7.15;6.45;;;14.40;99.90;;;;;;5084522;28;20028;-77
2022/09/11 01:36:55;;;;;;;6.40;5.80;;;14.40;99.90;;;;;;5077556;28;20099;-77
2022/09/11 01:39:26;;;;;;;6.72;6.03;;;14.40;99.90;;;;;;5093020;28;20028;-78
2022/09/11 01:42:03;;;;;;;7.45;6.75;;;14.30;99.90;;;;;;5103948;28;20036;-78
2022/09/11 01:44:39;;;;;;;10.10;7.95;;;14.20;99.90;;;;;;5116973;28;20031;-78
2022/09/11 01:47:09;;;;;;;8.95;8.07;;;14.30;99.90;;;;;;5124512;28;20486;-78
2022/09/11 01:49:41;;;;;;;9.18;8.10;;;14.20;99.90;;;;;;5118501;28;20076;-78
2022/09/11 01:52:17;;;;;;;8.60;7.68;;;14.20;99.90;;;;;;5110585;28;20027;-77
2022/09/11 01:54:56;;;;;;;8.55;7.75;;;14.20;99.90;;;;;;5118648;27;20027;-78
2022/09/11 01:58:12;;;;;;;8.88;7.97;;;14.20;99.90;;;;;;5126273;28;20042;-78
2022/09/11 02:00:41;;;;;;;21.92;18.15;;;14.20;99.90;;;;;;5095634;28;20184;-77
2022/09/11 02:03:15;;;;;;;18.90;16.50;;;14.30;99.90;;;;;;5112180;27;20054;-77
2022/09/11 02:05:59;;;;;;;20.77;16.58;;;14.40;99.90;;;;;;5132333;27;20023;-78
2022/09/11 02:08:27;;;;;;;;;;;14.40;99.90;;;;;;5132903;27;20023;-78
2022/09/11 02:11:02;;;;;;;19.73;16.75;;;14.50;99.90;;;;;;5133841;27;20367;-77
2022/09/11 02:14:05;;;;;;;23.02;18.25;;;14.60;99.90;;;;;;5125026;27;20026;-78
2022/09/11 02:16:47;;;;;;;25.27;21.20;;;14.60;99.90;;;;;;5132120;27;20118;-77
2022/09/11 02:19:25;;;;;;;27.88;22.33;;;14.70;99.90;;;;;;5124430;27;20035;-77
2022/09/11 02:21:51;;;;;;;26.88;22.50;;;14.70;99.90;;;;;;5121409;27;20042;-77
2022/09/11 02:24:18;;;;;;;28.42;21.88;;;14.80;99.90;;;;;;5124744;27;20478;-78
2022/09/11 02:26:48;;;;;;;28.83;21.88;;;14.80;99.90;;;;;;5131687;27;20270;-77
2022/09/11 02:29:14;;;;;;;26.60;21.83;;;14.90;99.90;;;;;;5131184;27;20498;-78
2022/09/11 02:31:41;;;;;;;27.05;22.73;;;14.90;99.90;;;;;;5135499;27;20031;-78
2022/09/11 02:34:08;;;;;;;26.73;21.88;;;14.90;99.90;;;;;;5124598;27;20028;-78
2022/09/11 02:36:58;;;;;;;24.70;21.00;;;14.90;99.90;;;;;;5119411;27;20074;-78
2022/09/11 02:39:37;;;;;;;33.08;25.40;;;14.90;99.90;;;;;;5123337;27;20030;-77
2022/09/11 02:42:16;;;;;;;29.48;22.77;;;14.90;99.90;;;;;;5125454;27;20051;-78
2022/09/11 02:45:11;;;;;;;32.83;24.42;;;14.90;99.90;;;;;;5118650;27;20088;-78
2022/09/11 02:47:42;;;;;;;31.30;23.67;;;14.80;99.90;;;;;;5116647;27;20630;-78
2022/09/11 02:50:29;;;;;;;29.95;23.17;;;14.80;99.90;;;;;;5127683;27;20042;-79
2022/09/11 02:53:16;;;;;;;34.15;26.05;;;14.80;99.90;;;;;;5118721;27;20684;-79
2022/09/11 02:56:19;;;;;;;39.50;27.30;;;14.80;99.90;;;;;;5124815;27;20040;-78
2022/09/11 02:58:54;;;;;;;33.17;26.77;;;14.80;99.90;;;;;;5125316;27;20025;-78
2022/09/11 03:01:21;;;;;;;34.25;26.63;;;14.80;99.90;;;;;;5127446;27;20656;-78
2022/09/11 03:03:46;;;;;;;40.45;28.15;;;14.80;99.90;;;;;;5140832;27;20038;-79
2022/09/11 03:06:23;;;;;;;34.38;25.95;;;14.80;99.90;;;;;;5130527;27;20424;-78
2022/09/11 03:08:49;;;;;;;35.67;26.92;;;14.80;99.90;;;;;;5122820;27;20015;-78
2022/09/11 03:11:16;;;;;;;36.70;28.00;;;14.80;99.90;;;;;;5119793;27;20642;-78
2022/09/11 03:13:42;;;;;;;34.50;26.17;;;14.80;99.90;;;;;;5146818;27;20386;-78
2022/09/11 03:16:08;;;;;;;33.42;26.33;;;14.80;99.90;;;;;;5133341;27;20531;-78
2022/09/11 03:18:34;;;;;;;41.20;29.00;;;14.80;99.90;;;;;;5120073;27;20031;-78
2022/09/11 03:21:00;;;;;;;39.92;28.63;;;14.80;99.90;;;;;;5128698;27;20027;-79
2022/09/11 03:23:26;;;;;;;34.78;26.90;;;14.80;99.90;;;;;;5123205;27;20423;-79
2022/09/11 03:25:53;;;;;;;34.80;26.85;;;14.80;99.90;;;;;;5119895;27;20073;-78
2022/09/11 03:28:19;;;;;;;29.83;24.67;;;14.80;99.90;;;;;;5121416;27;20407;-78
2022/09/11 03:30:45;;;;;;;31.00;24.35;;;14.80;99.90;;;;;;5126415;27;20027;-78
2022/09/11 03:33:10;;;;;;;37.72;28.80;;;14.80;99.90;;;;;;5120507;27;20047;-78
2022/09/11 03:35:37;;;;;;;33.63;25.45;;;14.80;99.90;;;;;;5124980;27;20473;-78
2022/09/11 03:38:02;;;;;;;43.08;30.73;;;14.90;99.90;;;;;;5128600;27;20031;-78
2022/09/11 03:40:28;;;;;;;33.47;26.35;;;14.90;99.90;;;;;;5119702;27;20043;-78
2022/09/11 03:42:54;;;;;;;38.33;29.33;;;14.90;99.90;;;;;;5106204;27;20061;-78
2022/09/11 03:45:20;;;;;;;34.10;26.73;;;14.90;99.90;;;;;;5115152;27;20510;-78
2022/09/11 03:47:46;;;;;;;32.63;25.58;;;14.90;99.90;;;;;;5118868;27;20061;-78
2022/09/11 03:50:11;;;;;;;41.17;30.48;;;14.90;99.90;;;;;;5112708;27;20012;-77
2022/09/11 03:52:38;;;;;;;39.67;29.17;;;14.90;99.90;;;;;;5119757;27;20088;-78
2022/09/11 03:55:05;;;;;;;36.10;26.85;;;14.90;99.90;;;;;;5115424;27;20027;-78
2022/09/11 03:57:37;;;;;;;33.45;25.98;;;14.90;99.90;;;;;;5127445;27;20025;-78
2022/09/11 04:00:04;;;;;;;30.58;24.45;;;14.90;99.90;;;;;;5122800;27;20240;-77
2022/09/11 04:02:30;;;;;;;33.10;25.27;;;14.90;99.90;;;;;;5125725;27;20110;-78
2022/09/11 04:04:56;;;;;;;30.48;24.90;;;15.00;99.90;;;;;;5122949;27;20111;-78
2022/09/11 04:07:22;;;;;;;33.08;26.02;;;15.00;99.90;;;;;;5108607;27;20047;-78
2022/09/11 04:09:48;;;;;;;33.97;25.85;;;15.10;99.90;;;;;;5114849;27;20076;-79
2022/09/11 04:12:14;;;;;;;30.63;24.60;;;15.00;99.90;;;;;;5117353;27;20053;-78
2022/09/11 04:14:40;;;;;;;30.08;25.15;;;15.10;99.90;;;;;;5144784;27;20061;-78
2022/09/11 04:17:07;;;;;;;31.80;25.02;;;15.10;99.90;;;;;;5120117;27;20054;-79
2022/09/11 04:19:33;;;;;;;34.75;26.98;;;15.10;99.90;;;;;;5126412;27;20053;-78
2022/09/11 04:21:58;;;;;;;31.48;25.92;;;15.10;99.90;;;;;;5121293;27;20043;-78
2022/09/11 04:24:24;;;;;;;30.45;24.77;;;15.10;99.90;;;;;;5124702;27;20118;-78
2022/09/11 04:26:50;;;;;;;27.35;22.48;;;15.10;99.90;;;;;;5113680;27;20027;-78
2022/09/11 04:29:16;;;;;;;26.63;20.98;;;15.10;99.90;;;;;;5136451;27;20436;-77
2022/09/11 04:31:42;;;;;;;28.38;23.08;;;15.10;99.90;;;;;;5110893;27;20028;-78
2022/09/11 04:34:10;;;;;;;27.08;22.08;;;15.10;99.90;;;;;;5127445;27;20478;-78
2022/09/11 04:36:35;;;;;;;27.33;22.27;;;15.10;99.90;;;;;;5130240;27;20031;-78
2022/09/11 04:39:01;;;;;;;27.63;21.42;;;15.00;99.90;;;;;;5122239;27;20034;-78
2022/09/11 04:41:27;;;;;;;26.13;20.70;;;15.00;99.90;;;;;;5092809;27;20293;-78
2022/09/11 04:43:55;;;;;;;25.48;20.17;;;15.00;99.90;;;;;;5087579;28;20053;-78
2022/09/11 04:46:22;;;;;;;23.42;19.42;;;15.00;99.90;;;;;;5084122;28;20565;-78
2022/09/11 04:48:51;;;;;;;23.38;18.88;;;15.00;99.90;;;;;;5084219;28;20103;-78
2022/09/11 04:51:25;;;;;;;24.52;19.73;;;15.00;99.90;;;;;;5088756;28;20396;-77
2022/09/11 04:53:53;;;;;;;24.60;20.23;;;15.00;99.90;;;;;;5104476;28;20039;-78
2022/09/11 04:56:22;;;;;;;26.45;21.10;;;14.90;99.90;;;;;;5101358;28;20103;-78
2022/09/11 04:59:02;;;;;;;24.25;19.83;;;14.90;99.90;;;;;;5086360;28;20020;-77
2022/09/11 05:01:29;;;;;;;27.02;20.90;;;14.90;99.90;;;;;;5099508;28;20698;-78
2022/09/11 05:03:55;;;;;;;27.80;22.13;;;14.90;99.90;;;;;;5095040;28;20032;-77
2022/09/11 05:06:22;;;;;;;26.70;20.40;;;14.90;99.90;;;;;;5086267;28;20119;-78
2022/09/11 05:08:48;;;;;;;27.17;21.45;;;14.90;99.90;;;;;;5098396;28;20015;-78
2022/09/11 05:11:16;;;;;;;28.58;21.80;;;14.90;99.90;;;;;;5104261;28;20655;-77
2022/09/11 05:13:42;;;;;;;31.77;24.13;;;14.90;99.90;;;;;;5103125;28;20030;-77
2022/09/11 05:16:14;;;;;;;32.03;23.95;;;14.90;99.90;;;;;;5092702;28;20028;-78
2022/09/11 05:18:41;;;;;;;28.13;21.80;;;14.90;99.90;;;;;;5086328;28;20024;-78
2022/09/11 05:21:16;;;;;;;31.30;22.70;;;14.90;99.90;;;;;;5103119;28;20031;-78
2022/09/11 05:23:46;;;;;;;29.38;23.05;;;14.90;99.90;;;;;;5103421;28;20027;-78
2022/09/11 05:26:17;;;;;;;28.58;21.85;;;14.90;99.90;;;;;;5102346;28;20032;-79
2022/09/11 05:28:43;;;;;;;30.67;22.20;;;14.90;99.90;;;;;;5104365;28;20031;-78
2022/09/11 05:31:15;;;;;;;31.05;23.40;;;15.00;99.90;;;;;;5108541;28;20031;-78
2022/09/11 05:33:42;;;;;;;27.50;21.20;;;15.00;99.90;;;;;;5113555;28;20024;-77
2022/09/11 05:36:09;;;;;;;28.05;22.17;;;15.00;99.90;;;;;;5093648;28;20376;-78
2022/09/11 05:38:37;;;;;;;30.80;23.40;;;15.00;99.90;;;;;;5105426;28;20035;-78
2022/09/11 05:41:08;;;;;;;36.75;25.83;;;15.00;99.90;;;;;;5087279;28;20616;-78
2022/09/11 05:43:34;;;;;;;36.45;26.75;;;15.10;99.90;;;;;;5106924;27;20036;-77
2022/09/11 05:46:00;;;;;;;30.77;24.20;;;15.10;99.90;;;;;;5119099;27;20103;-78
2022/09/11 05:48:34;;;;;;;39.80;28.00;;;15.10;99.90;;;;;;5106032;27;20884;-77
2022/09/11 05:51:06;;;;;;;;;;;15.10;99.90;;;;;;5113399;27;20390;-77
2022/09/11 05:53:32;;;;;;;37.03;26.58;;;15.20;99.90;;;;;;5115136;27;20252;-78
2022/09/11 05:56:05;;;;;;;36.20;26.63;;;15.20;99.90;;;;;;5089709;28;20050;-77
2022/09/11 05:58:31;;;;;;;37.85;26.67;;;15.20;99.90;;;;;;5112442;27;20034;-77
2022/09/11 06:01:11;;;;;;;34.35;25.30;;;15.20;99.90;;;;;;5093447;27;20176;-78
2022/09/11 06:03:37;;;;;;;36.58;28.10;;;15.20;99.90;;;;;;5094890;28;20031;-77
2022/09/11 06:06:06;;;;;;;41.88;29.15;;;15.20;99.90;;;;;;5114005;27;20023;-78
2022/09/11 06:08:33;;;;;;;38.08;27.58;;;15.20;99.90;;;;;;5099768;27;20015;-78
2022/09/11 06:11:00;;;;;;;44.60;31.85;;;15.20;99.90;;;;;;5101022;27;20523;-77
2022/09/11 06:13:32;;;;;;;46.90;32.78;;;15.20;99.90;;;;;;5093945;28;20429;-78
2022/09/11 06:15:58;;;;;;;40.05;28.85;;;15.30;99.90;;;;;;5093733;28;20388;-77
2022/09/11 06:18:24;;;;;;;38.80;29.35;;;15.30;99.90;;;;;;5112760;27;20031;-77
2022/09/11 06:20:57;;;;;;;36.05;26.15;;;15.30;99.90;;;;;;5112790;27;20676;-77
2022/09/11 06:23:23;;;;;;;39.88;27.60;;;15.30;99.90;;;;;;5108501;27;20044;-77
2022/09/11 06:25:49;;;;;;;32.55;24.92;;;15.40;99.90;;;;;;5111286;27;20114;-78
2022/09/11 06:28:15;;;;;;;33.97;25.00;;;15.40;99.90;;;;;;5119745;27;20027;-78
2022/09/11 06:30:40;;;;;;;36.20;25.13;;;15.50;99.90;;;;;;5113591;27;20027;-78
2022/09/11 06:33:06;;;;;;;28.17;22.25;;;15.50;99.90;;;;;;5100421;27;20035;-78
2022/09/11 06:35:32;;;;;;;29.90;23.13;;;15.50;99.90;;;;;;5109695;27;20027;-77
2022/09/11 06:37:58;;;;;;;28.95;23.13;;;15.60;99.90;;;;;;5108995;27;20050;-78
2022/09/11 06:40:24;;;;;;;30.30;22.83;;;15.60;99.90;;;;;;5103379;27;20044;-77
2022/09/11 06:42:50;;;;;;;27.15;20.60;;;15.70;99.90;;;;;;5100297;27;20096;-78
2022/09/11 06:45:16;;;;;;;28.38;21.50;;;15.70;99.90;;;;;;5103153;27;20032;-78
2022/09/11 06:47:43;;;;;;;26.02;20.50;;;15.70;99.90;;;;;;5114138;27;20103;-78
2022/09/11 06:50:10;;;;;;;25.80;20.02;;;15.80;99.90;;;;;;5106273;27;20031;-79
2022/09/11 06:52:36;;;;;;;22.83;18.90;;;15.80;99.90;;;;;;5096612;27;20016;-79
2022/09/11 06:55:03;;;;;;;26.50;19.85;;;15.90;99.90;;;;;;5101354;27;20034;-79
2022/09/11 06:57:28;;;;;;;28.75;21.98;;;15.90;99.90;;;;;;5112039;27;20113;-78
2022/09/11 06:59:56;;;;;;;23.70;19.35;;;16.00;99.90;;;;;;5122906;27;20031;-78
2022/09/11 07:02:22;;;;;;;23.95;18.27;;;16.00;99.90;;;;;;5107912;27;20015;-79
2022/09/11 07:04:48;;;;;;;23.52;17.92;;;16.00;99.90;;;;;;5118058;27;20040;-78
2022/09/11 07:07:14;;;;;;;24.58;19.27;;;16.00;99.90;;;;;;5101940;27;20081;-76
2022/09/11 07:09:39;;;;;;;28.60;20.55;;;16.10;99.90;;;;;;5110128;27;20148;-80
2022/09/11 07:12:05;;;;;;;26.75;20.05;;;16.10;99.90;;;;;;5113211;27;20475;-75
2022/09/11 07:14:31;;;;;;;24.15;18.73;;;16.10;99.90;;;;;;5111592;27;20027;-79
2022/09/11 07:16:57;;;;;;;27.27;20.25;;;16.20;99.90;;;;;;5116690;27;20073;-80
2022/09/11 07:19:26;;;;;;;22.60;18.38;;;16.30;99.90;;;;;;5123490;27;20103;-79
2022/09/11 07:21:52;;;;;;;23.58;17.65;;;16.30;99.90;;;;;;5105830;27;20031;-78
2022/09/11 07:24:17;;;;;;;24.02;19.48;;;16.30;99.90;;;;;;5101755;27;20093;-82
2022/09/11 07:26:43;;;;;;;23.27;18.58;;;16.30;99.90;;;;;;4355364;28;10001159;-81
2022/09/11 07:29:11;;;;;;;23.58;18.77;;;16.30;99.90;;;;;;5055176;28;20036;-80
2022/09/11 07:31:37;;;;;;;24.58;19.25;;;16.40;99.90;;;;;;5053108;28;20040;-81
2022/09/11 07:34:03;;;;;;;25.33;17.70;;;16.50;99.90;;;;;;5049643;28;20036;-81
2022/09/11 07:36:31;;;;;;;24.73;18.55;;;16.60;99.90;;;;;;5057971;28;20032;-80
2022/09/11 07:38:58;;;;;;;24.33;17.75;;;16.60;99.90;;;;;;5059998;28;20040;-80
2022/09/11 07:41:25;;;;;;;21.17;16.55;;;16.60;99.90;;;;;;5068178;28;20131;-81
2022/09/11 07:43:56;;;;;;;24.23;17.50;;;16.70;99.90;;;;;;5074147;28;20096;-81
2022/09/11 07:46:23;;;;;;;21.20;16.83;;;16.80;99.90;;;;;;5076006;27;20476;-80
2022/09/11 07:48:49;;;;;;;24.20;17.45;;;16.80;99.90;;;;;;5077330;28;20089;-76
2022/09/11 07:51:17;;;;;;;21.45;16.60;;;16.80;99.90;;;;;;5075243;28;20020;-77
2022/09/11 07:53:45;;;;;;;18.52;14.80;;;16.90;99.90;;;;;;5066370;28;20040;-78
2022/09/11 07:56:17;;;;;;;18.65;15.18;;;16.90;99.90;;;;;;5073485;28;20031;-79
2022/09/11 07:58:43;;;;;;;23.05;16.60;;;16.90;99.90;;;;;;5099995;27;20043;-78
2022/09/11 08:01:11;;;;;;;24.17;17.27;;;16.90;99.90;;;;;;5107005;27;20019;-78
2022/09/11 08:03:37;;;;;;;21.65;17.25;;;16.90;99.90;;;;;;5103735;27;20031;-77
2022/09/11 08:06:05;;;;;;;23.63;18.70;;;16.90;99.90;;;;;;5103474;27;20074;-78
2022/09/11 08:08:31;;;;;;;23.35;17.55;;;16.90;99.90;;;;;;5106066;27;20574;-79
2022/09/11 08:11:16;;;;;;;27.40;17.80;;;16.90;99.90;;;;;;5106967;27;20031;-80
2022/09/11 08:13:42;;;;;;;26.38;18.92;;;16.90;99.90;;;;;;5106144;27;20029;-79
2022/09/11 08:16:08;;;;;;;22.13;17.20;;;16.90;99.90;;;;;;5109868;27;20037;-75
2022/09/11 08:18:35;;;;;;;25.35;19.38;;;16.90;99.90;;;;;;5121704;27;20030;-76
2022/09/11 08:21:09;;;;;;;27.23;17.92;;;16.90;99.90;;;;;;5107435;27;20035;-76
2022/09/11 08:23:39;;;;;;;24.42;17.75;;;17.00;99.90;;;;;;5119614;27;20087;-77
2022/09/11 08:26:16;;;;;;;21.85;16.98;;;17.00;99.90;;;;;;5126788;27;20023;-77
2022/09/11 08:28:43;;;;;;;23.25;17.55;;;17.10;99.90;;;;;;5106745;28;20012;-77
2022/09/11 08:31:11;;;;;;;21.40;16.25;;;17.20;99.90;;;;;;5105823;27;20499;-77
2022/09/11 08:33:37;;;;;;;20.50;15.32;;;17.20;99.90;;;;;;5113774;27;20025;-77
2022/09/11 08:36:07;;;;;;;18.63;14.45;;;17.30;99.90;;;;;;5125096;27;20062;-77
2022/09/11 08:38:33;;;;;;;16.25;12.90;;;17.30;99.90;;;;;;5113319;27;20015;-77
2022/09/11 08:41:09;;;;;;;15.55;12.18;;;17.40;99.90;;;;;;5111931;27;20039;-77
2022/09/11 08:43:43;;;;;;;16.02;12.77;;;17.40;99.90;;;;;;5104749;27;20133;-77
2022/09/11 08:46:10;;;;;;;16.05;13.63;;;17.50;99.90;;;;;;5093947;27;20110;-77
2022/09/11 08:48:58;;;;;;;21.23;14.10;;;17.50;99.90;;;;;;5107228;27;20037;-82
2022/09/11 08:51:24;;;;;;;23.05;16.02;;;17.50;99.90;;;;;;5097333;27;20023;-81
2022/09/11 08:53:51;;;;;;;21.35;16.05;;;17.40;99.90;;;;;;5113936;27;20066;-81
2022/09/11 08:56:21;;;;;;;23.85;17.65;;;17.30;99.90;;;;;;5105931;27;20038;-84
2022/09/11 08:59:22;;;;;;;21.00;16.48;;;17.30;99.90;;;;;;5103565;28;20055;-83
2022/09/11 09:01:51;;;;;;;19.35;15.10;;;17.20;99.90;;;;;;5084130;28;20035;-83
2022/09/11 09:04:50;;;;;;;18.92;14.77;;;17.20;99.90;;;;;;5083809;28;20028;-83
2022/09/11 09:07:35;;;;;;;16.15;12.88;;;17.30;99.90;;;;;;5099149;27;20035;-83
2022/09/11 09:10:38;;;;;;;15.30;12.18;;;17.30;99.90;;;;;;5086019;28;20028;-84
2022/09/11 09:13:25;;;;;;;17.43;13.10;;;17.40;99.90;;;;;;5083035;28;20016;-84
2022/09/11 09:16:06;;;;;;;19.58;13.30;;;17.50;99.90;;;;;;5098533;27;20023;-84
2022/09/11 09:18:40;;;;;;;14.43;11.13;;;17.60;99.90;;;;;;5104526;28;20039;-83
2022/09/11 09:21:23;;;;;;;15.80;11.27;;;17.60;99.90;;;;;;5103348;28;20101;-83
2022/09/11 09:23:53;;;;;;;16.30;12.07;;;17.70;99.90;;;;;;5092247;28;20117;-83
2022/09/11 09:26:19;;;;;;;14.80;11.98;;;17.60;99.90;;;;;;5097829;28;20015;-83
2022/09/11 09:28:53;;;;;;;15.65;11.07;;;17.60;99.90;;;;;;5103360;28;20024;-83
2022/09/11 09:31:21;;;;;;;14.30;10.80;;;17.80;99.90;;;;;;5084392;28;20020;-83
2022/09/11 09:34:11;;;;;;;13.02;10.05;;;17.80;99.90;;;;;;5085426;28;20042;-83
2022/09/11 09:37:01;;;;;;;13.30;10.05;;;17.90;99.90;;;;;;5089940;28;20326;-83
2022/09/11 09:39:27;;;;;;;9.93;7.93;;;18.00;99.90;;;;;;5094548;28;20557;-83
2022/09/11 09:42:17;;;;;;;11.20;7.60;;;17.90;99.90;;;;;;5095126;28;20485;-83
2022/09/11 09:44:47;;;;;;;9.90;7.97;;;17.90;99.90;;;;;;5094067;28;20035;-82
2022/09/11 09:47:14;;;;;;;11.85;8.05;;;17.90;99.90;;;;;;5095631;28;20050;-83
2022/09/11 09:49:41;;;;;;;9.32;7.90;;;17.90;99.90;;;;;;5126114;28;20033;-83
2022/09/11 09:52:32;;;;;;;8.95;7.10;;;17.90;99.90;;;;;;5124315;28;20012;-83
2022/09/11 09:55:13;;;;;;;8.90;7.43;;;18.00;99.90;;;;;;5098062;28;20024;-83
2022/09/11 09:57:39;;;;;;;9.65;7.05;;;18.10;99.90;;;;;;5097639;28;20121;-83
2022/09/11 10:00:13;;;;;;;8.00;5.60;;;18.10;99.90;;;;;;5086666;28;20540;-82
2022/09/11 10:02:48;;;;;;;7.80;4.95;;;18.20;99.90;;;;;;5102699;28;20024;-83
2022/09/11 10:05:35;;;;;;;6.20;5.07;;;18.20;99.90;;;;;;5099861;28;20024;-83
2022/09/11 10:08:06;;;;;;;7.00;6.18;;;18.20;99.90;;;;;;5105007;28;20368;-83
2022/09/11 10:10:37;;;;;;;7.38;6.57;;;18.10;99.90;;;;;;5085235;28;20024;-82
2022/09/11 10:13:10;;;;;;;8.70;7.80;;;18.10;99.90;;;;;;5082502;28;20047;-82
2022/09/11 10:15:39;;;;;;;7.50;6.70;;;;;;;;;;5101743;28;20424;-82
2022/09/11 10:18:34;;;;;;;10.18;7.75;;;18.20;99.90;;;;;;5125986;28;20027;-83
2022/09/11 10:21:32;;;;;;;11.02;8.88;;;18.20;99.90;;;;;;5084369;28;20059;-82
2022/09/11 10:24:25;;;;;;;9.55;7.95;;;18.20;99.90;;;;;;5085307;28;20396;-83
2022/09/11 10:26:53;;;;;;;11.00;7.80;;;18.20;99.90;;;;;;5087360;28;20066;-82
2022/09/11 10:29:24;;;;;;;10.10;6.95;;;18.30;99.90;;;;;;5102366;28;20018;-82
2022/09/11 10:31:53;;;;;;;8.88;7.00;;;18.20;99.90;;;;;;5094502;28;20032;-82
2022/09/11 10:34:21;;;;;;;10.77;8.05;;;18.30;99.90;;;;;;5091206;27;20052;-83
2022/09/11 10:36:55;;;;;;;10.00;7.65;;;18.30;99.90;;;;;;5119074;27;20052;-82
2022/09/11 10:39:24;;;;;;;12.70;8.13;;;18.30;99.90;;;;;;5108551;28;20651;-82
2022/09/11 10:41:53;;;;;;;9.50;7.57;;;18.40;99.90;;;;;;5125746;27;20062;-83
2022/09/11 10:44:21;;;;;;;7.55;6.75;;;18.40;99.90;;;;;;5125978;27;20035;-82
2022/09/11 10:47:12;;;;;;;7.40;6.50;;;18.50;99.90;;;;;;5124420;27;20004;-82
2022/09/11 10:49:38;;;;;;;9.60;7.72;;;18.60;99.90;;;;;;5113779;27;20023;-82
2022/09/11 10:52:07;;;;;;;9.57;7.50;;;18.80;99.90;;;;;;5122439;27;20030;-82
2022/09/11 10:54:52;;;;;;;8.55;6.85;;;18.80;99.90;;;;;;5108843;27;20448;-82
2022/09/11 10:57:31;;;;;;;8.65;6.55;;;18.90;99.90;;;;;;5116457;27;20039;-82
2022/09/11 11:00:11;;;;;;;7.25;5.60;;;19.10;99.90;;;;;;5110625;27;20069;-82
2022/09/11 11:02:41;;;;;;;6.85;5.90;;;19.20;99.90;;;;;;5127195;27;20030;-82
2022/09/11 11:05:29;;;;;;;7.72;6.65;;;19.40;99.90;;;;;;5125245;27;20028;-82
2022/09/11 11:08:22;;;;;;;7.55;5.78;;;19.50;99.90;;;;;;5115518;27;20032;-82
2022/09/11 11:11:11;;;;;;;6.68;5.95;;;19.70;99.90;;;;;;5109035;27;20523;-82
2022/09/11 11:14:03;;;;;;;7.10;5.55;;;19.70;99.90;;;;;;5114833;27;20117;-81
2022/09/11 11:16:29;;;;;;;8.07;6.47;;;;;;;;;;5149709;27;20035;-81
2022/09/11 11:19:33;;;;;;;7.45;5.75;;;19.70;99.90;;;;;;5128611;27;20027;-81
2022/09/11 11:22:20;;;;;;;6.05;5.20;;;19.80;99.90;;;;;;5107745;27;20031;-80
2022/09/11 11:25:06;;;;;;;5.93;4.80;;;19.90;99.90;;;;;;5131867;27;20031;-81
2022/09/11 11:27:51;;;;;;;7.15;5.30;;;;;;;;;;5136909;27;20054;-82
2022/09/11 11:30:25;;;;;;;7.47;4.70;;;20.40;99.90;;;;;;5128580;27;20076;-82
2022/09/11 11:33:11;;;;;;;7.43;4.88;;;20.40;99.90;;;;;;5126626;27;20747;-80
2022/09/11 11:35:52;;;;;;;7.00;4.53;;;20.80;99.90;;;;;;5133610;27;20079;-80
2022/09/11 11:38:21;;;;;;;5.07;3.95;;;20.90;99.90;;;;;;5119779;27;20046;-81
2022/09/11 11:40:55;;;;;;;6.40;4.70;;;20.90;99.90;;;;;;5123730;27;20066;-80
2022/09/11 11:43:27;;;;;;;9.35;5.22;;;20.80;99.90;;;;;;5126379;27;20035;-80
2022/09/11 11:46:10;;;;;;;9.40;5.32;;;20.80;99.90;;;;;;5136445;27;20769;-80
2022/09/11 11:48:43;;;;;;;6.05;4.85;;;20.90;99.90;;;;;;5130237;27;20031;-80
2022/09/11 11:51:15;;;;;;;5.85;4.90;;;21.10;99.90;;;;;;5108179;28;20657;-80
2022/09/11 11:54:01;;;;;;;6.30;4.63;;;21.20;99.90;;;;;;5105438;28;20022;-79
2022/09/11 11:56:47;;;;;;;5.85;4.68;;;21.40;99.90;;;;;;5099332;27;20120;-79
2022/09/11 11:59:22;;;;;;;6.07;5.22;;;21.60;99.90;;;;;;5110460;27;20034;-79
2022/09/11 12:01:54;;;;;;;8.35;5.60;;;21.60;99.90;;;;;;5109056;27;20385;-78
2022/09/11 12:04:26;;;;;;;4.97;4.15;;;21.60;99.90;;;;;;5104788;27;20039;-80
2022/09/11 12:06:52;;;;;;;9.48;5.70;;;21.60;99.90;;;;;;5131149;27;20378;-78
2022/09/11 12:09:18;;;;;;;7.05;5.45;;;21.60;99.90;;;;;;5128589;27;20019;-78
2022/09/11 12:11:50;;;;;;;9.23;6.25;;;21.50;99.90;;;;;;5110265;27;20829;-77
2022/09/11 12:14:27;;;;;;;7.27;5.73;;;21.10;99.90;;;;;;5130990;27;20030;-78
2022/09/11 12:16:55;;;;;;;8.77;5.75;;;20.70;99.90;;;;;;5122359;27;20433;-78
2022/09/11 12:19:24;;;;;;;6.38;5.35;;;20.60;99.90;;;;;;5107578;27;20031;-78
2022/09/11 12:21:52;;;;;;;6.30;5.30;;;20.50;99.90;;;;;;5115660;27;20035;-78
2022/09/11 12:24:43;;;;;;;6.00;4.85;;;20.40;99.90;;;;;;5143234;27;20086;-78
2022/09/11 12:27:33;;;;;;;9.50;4.90;;;20.40;99.90;;;;;;5147942;27;20079;-78
2022/09/11 12:30:17;;;;;;;6.00;4.68;;;20.60;99.90;;;;;;5116867;27;20012;-79
2022/09/11 12:32:59;;;;;;;5.78;4.53;;;20.70;99.90;;;;;;5110993;27;20023;-79
2022/09/11 12:35:45;;;;;;;8.60;5.00;;;21.00;99.90;;;;;;5123586;27;20195;-77
2022/09/11 12:38:13;;;;;;;7.28;4.80;;;21.30;99.90;;;;;;5126852;27;20256;-78
2022/09/11 12:40:48;;;;;;;5.38;4.38;;;21.30;99.90;;;;;;5127217;27;20043;-78
2022/09/11 12:43:45;;;;;;;5.55;4.43;;;21.20;99.90;;;;;;5123339;27;20035;-78
2022/09/11 12:46:20;;;;;;;5.40;4.15;;;21.10;99.90;;;;;;5107891;27;20047;-77
2022/09/11 12:48:51;;;;;;;5.05;4.30;;;20.90;99.90;;;;;;5105839;27;20055;-77
2022/09/11 12:51:22;;;;;;;4.57;4.10;;;20.80;99.90;;;;;;5104562;27;20035;-77
2022/09/11 12:53:51;;;;;;;5.40;4.82;;;20.60;99.90;;;;;;5112761;27;20023;-80
2022/09/11 12:56:20;;;;;;;7.85;5.88;;;20.40;99.90;;;;;;5128332;27;20521;-80
2022/09/11 12:59:01;;;;;;;8.20;5.85;;;20.10;99.90;;;;;;5139574;27;20031;-80
2022/09/11 13:01:40;;;;;;;9.27;6.31;;;19.90;99.90;;;;;;4660270;27;10002979;-78